createdAt,value
2024-02-28T00:02:02.544Z,101867.28
2024-02-28T00:04:29.187Z,101859.53
2024-02-28T00:06:55.833Z,101861.41
2024-02-28T00:09:22.482Z,101853.94
2024-02-28T00:11:49.176Z,101841.56
2024-02-28T00:14:16.015Z,101844.66
2024-02-28T00:16:42.967Z,101838.94
2024-02-28T00:19:11.082Z,101857.00
2024-02-28T00:21:38.044Z,101843.78
2024-02-28T00:24:05.463Z,101838.06
2024-02-28T00:26:32.557Z,101845.97
2024-02-28T00:28:59.255Z,101850.72
2024-02-28T00:31:26.141Z,101852.81
2024-02-28T00:33:52.835Z,101849.22
2024-02-28T00:36:20.989Z,101860.59
2024-02-28T00:38:47.701Z,101872.34
2024-02-28T00:41:14.476Z,101873.13
2024-02-28T00:43:41.152Z,101875.16
2024-02-28T00:46:07.904Z,101871.81
2024-02-28T00:48:34.617Z,101868.47
2024-02-28T00:51:01.261Z,101862.50
2024-02-28T00:53:29.259Z,101866.88
2024-02-28T00:55:55.945Z,101865.72
2024-02-28T00:58:22.775Z,101869.94
2024-02-28T01:00:49.589Z,101871.88
2024-02-28T01:03:16.354Z,101868.97
2024-02-28T01:05:43.097Z,101878.78
2024-02-28T01:08:09.718Z,101888.13
2024-02-28T01:10:37.712Z,101883.78
2024-02-28T01:13:04.709Z,101877.78
2024-02-28T01:15:31.384Z,101873.56
2024-02-28T01:17:58.246Z,101876.94
2024-02-28T01:20:24.937Z,101876.69
2024-02-28T01:22:51.566Z,101880.41
2024-02-28T01:25:18.239Z,101877.75
2024-02-28T01:27:46.297Z,101883.00
2024-02-28T01:30:13.741Z,101880.63
2024-02-28T01:32:40.552Z,101883.38
2024-02-28T01:35:09.693Z,101871.25
2024-02-28T01:37:36.152Z,101878.41
2024-02-28T01:40:03.307Z,101878.09
2024-02-28T01:42:29.989Z,101881.03
2024-02-28T01:44:58.010Z,101882.91
2024-02-28T01:47:25.204Z,101886.78
2024-02-28T01:49:51.856Z,101888.19
2024-02-28T01:52:19.117Z,101889.34
2024-02-28T01:54:45.869Z,101892.44
2024-02-28T01:57:13.116Z,101887.41
2024-02-28T01:59:40.490Z,101888.97
2024-02-28T02:02:08.594Z,101893.28
2024-02-28T02:04:35.284Z,101891.00
2024-02-28T02:07:02.512Z,101892.81
2024-02-28T02:09:29.282Z,101885.06
2024-02-28T02:11:55.952Z,101879.56
2024-02-28T02:14:22.571Z,101880.63
2024-02-28T02:16:49.196Z,101892.06
2024-02-28T02:19:17.471Z,101879.78
2024-02-28T02:21:51.029Z,101884.06
2024-02-28T02:24:19.262Z,101885.59
2024-02-28T02:26:45.936Z,101886.59
2024-02-28T02:29:12.614Z,101886.44
2024-02-28T02:31:39.246Z,101884.41
2024-02-28T02:34:05.957Z,101885.41
2024-02-28T02:36:32.674Z,101891.00
2024-02-28T02:38:59.351Z,101894.69
2024-02-28T02:41:27.376Z,101898.88
2024-02-28T02:43:54.033Z,101910.19
2024-02-28T02:46:20.678Z,101904.81
2024-02-28T02:48:47.476Z,101909.94
2024-02-28T02:51:14.193Z,101901.88
2024-02-28T02:53:40.944Z,101901.19
2024-02-28T02:56:08.159Z,101909.56
2024-02-28T02:58:36.161Z,101903.84
2024-02-28T03:01:03.066Z,101898.78
2024-02-28T03:03:29.868Z,101901.50
2024-02-28T03:05:56.502Z,101899.25
2024-02-28T03:08:23.150Z,101898.78
2024-02-28T03:10:49.946Z,101889.94
2024-02-28T03:13:16.619Z,101895.63
2024-02-28T03:15:44.701Z,101882.00
2024-02-28T03:18:11.496Z,101879.47
2024-02-28T03:20:38.190Z,101878.00
2024-02-28T03:23:05.051Z,101875.00
2024-02-28T03:25:31.817Z,101880.06
2024-02-28T03:27:58.818Z,101881.13
2024-02-28T03:30:25.480Z,101878.03
2024-02-28T03:32:53.544Z,101881.28
2024-02-28T03:35:20.245Z,101876.78
2024-02-28T03:37:46.930Z,101878.53
2024-02-28T03:40:13.717Z,101887.22
2024-02-28T03:42:40.440Z,101888.31
2024-02-28T03:45:07.734Z,101891.28
2024-02-28T03:47:34.429Z,101889.59
2024-02-28T03:50:02.513Z,101879.09
2024-02-28T03:52:29.149Z,101886.09
2024-02-28T03:54:55.818Z,101893.78
2024-02-28T03:57:22.525Z,101896.41
2024-02-28T03:59:49.251Z,101898.75
2024-02-28T04:02:16.045Z,101890.50
2024-02-28T04:04:42.675Z,101890.13
2024-02-28T04:07:11.715Z,101896.34
2024-02-28T04:09:38.171Z,101902.34
2024-02-28T04:12:05.375Z,101895.59
2024-02-28T04:14:32.033Z,101891.06
2024-02-28T04:16:58.675Z,101895.00
2024-02-28T04:19:25.289Z,101901.94
2024-02-28T04:21:52.098Z,101899.53
2024-02-28T04:24:20.212Z,101896.22
2024-02-28T04:26:46.872Z,101892.59
2024-02-28T04:29:13.637Z,101887.72
2024-02-28T04:31:40.342Z,101888.81
2024-02-28T04:34:07.051Z,101899.63
2024-02-28T04:36:33.786Z,101905.03
2024-02-28T04:39:00.418Z,101899.22
2024-02-28T04:41:28.690Z,101900.16
2024-02-28T04:43:55.323Z,101902.25
2024-02-28T04:46:21.962Z,101909.63
2024-02-28T04:48:48.750Z,101915.63
2024-02-28T04:51:16.637Z,101900.63
2024-02-28T04:53:43.300Z,101901.94
2024-02-28T04:56:10.028Z,101906.44
2024-02-28T04:58:38.422Z,101908.94
2024-02-28T05:01:05.294Z,101908.63
2024-02-28T05:03:32.046Z,101903.66
2024-02-28T05:05:58.756Z,101906.38
2024-02-28T05:08:25.723Z,101908.53
2024-02-28T05:10:52.558Z,101915.78
2024-02-28T05:13:20.021Z,101909.25
2024-02-28T05:15:48.021Z,101916.16
2024-02-28T05:18:14.758Z,101910.91
2024-02-28T05:20:41.469Z,101907.75
2024-02-28T05:23:08.107Z,101916.03
2024-02-28T05:25:34.766Z,101916.16
2024-02-28T05:28:01.632Z,101913.38
2024-02-28T05:30:28.396Z,101911.75
2024-02-28T05:32:56.511Z,101918.44
2024-02-28T05:35:23.168Z,101913.19
2024-02-28T05:37:54.615Z,101919.44
2024-02-28T05:40:21.261Z,101914.28
2024-02-28T05:42:47.959Z,101913.84
2024-02-28T05:45:14.938Z,101919.47
2024-02-28T05:47:41.641Z,101911.53
2024-02-28T05:50:10.637Z,101924.06
2024-02-28T05:52:37.146Z,101931.69
2024-02-28T05:55:04.476Z,101923.75
2024-02-28T05:57:31.210Z,101928.25
2024-02-28T05:59:57.919Z,101927.50
2024-02-28T06:02:24.538Z,101929.09
2024-02-28T06:04:51.180Z,101927.25
2024-02-28T06:07:19.244Z,101936.31
2024-02-28T06:09:45.915Z,101931.31
2024-02-28T06:12:12.631Z,101933.53
2024-02-28T06:14:39.269Z,101934.28
2024-02-28T06:17:06.312Z,101928.50
2024-02-28T06:19:33.084Z,101939.06
2024-02-28T06:21:59.750Z,101935.31
2024-02-28T06:24:27.872Z,101935.03
2024-02-28T06:26:54.554Z,101934.38
2024-02-28T06:29:21.351Z,101939.34
2024-02-28T06:31:51.474Z,101939.53
2024-02-28T06:34:18.314Z,101950.06
2024-02-28T06:36:45.037Z,101947.22
2024-02-28T06:39:11.741Z,101954.66
2024-02-28T06:41:39.800Z,101956.53
2024-02-28T06:44:06.442Z,101951.09
2024-02-28T06:46:33.112Z,101955.00
2024-02-28T06:48:59.799Z,101960.25
2024-02-28T06:51:26.565Z,101962.16
2024-02-28T06:53:53.230Z,101946.78
2024-02-28T06:56:19.868Z,101950.63
2024-02-28T06:58:47.892Z,101960.09
2024-02-28T07:01:14.650Z,101962.59
2024-02-28T07:03:41.406Z,101966.91
2024-02-28T07:06:08.077Z,101962.25
2024-02-28T07:08:34.788Z,101970.34
2024-02-28T07:11:01.738Z,101971.09
2024-02-28T07:13:28.526Z,101967.00
2024-02-28T07:15:56.670Z,101964.38
2024-02-28T07:18:23.482Z,101967.88
2024-02-28T07:20:50.329Z,101965.59
2024-02-28T07:23:17.196Z,101963.41
2024-02-28T07:25:44.166Z,101968.03
2024-02-28T07:28:10.815Z,101975.38
2024-02-28T07:30:37.553Z,101970.59
2024-02-28T07:33:07.461Z,101979.19
2024-02-28T07:35:44.364Z,101981.09
2024-02-28T07:38:11.036Z,101970.25
2024-02-28T07:40:37.813Z,101979.19
2024-02-28T07:43:04.881Z,101987.81
2024-02-28T07:45:31.587Z,101990.75
2024-02-28T07:47:58.304Z,101994.69
2024-02-28T07:50:26.327Z,101990.38
2024-02-28T07:52:55.185Z,102004.56
2024-02-28T07:55:21.820Z,102004.03
2024-02-28T07:57:48.557Z,102007.56
2024-02-28T08:00:15.880Z,102005.19
2024-02-28T08:02:42.550Z,102018.72
2024-02-28T08:05:09.307Z,102018.78
2024-02-28T08:07:37.412Z,102015.16
2024-02-28T08:10:07.607Z,102018.22
2024-02-28T08:12:34.418Z,102021.34
2024-02-28T08:15:01.077Z,102020.97
2024-02-28T08:17:27.852Z,102024.75
2024-02-28T08:19:54.521Z,102024.41
2024-02-28T08:22:21.305Z,102027.81
2024-02-28T08:24:52.137Z,102035.09
2024-02-28T08:27:18.969Z,102027.59
2024-02-28T08:29:45.643Z,102032.63
2024-02-28T08:32:12.540Z,102039.13
2024-02-28T08:34:39.186Z,102042.78
2024-02-28T08:37:05.885Z,102054.41
2024-02-28T08:39:32.580Z,102047.66
2024-02-28T08:42:00.672Z,102052.53
2024-02-28T08:44:27.301Z,102047.75
2024-02-28T08:46:53.912Z,102044.06
2024-02-28T08:49:20.560Z,102043.44
2024-02-28T08:51:49.244Z,102043.53
2024-02-28T08:54:16.980Z,102044.38
2024-02-28T08:56:50.147Z,102041.09
2024-02-28T08:59:24.515Z,102037.09
2024-02-28T09:01:51.238Z,102041.50
2024-02-28T09:04:18.180Z,102045.78
2024-02-28T09:06:44.881Z,102041.59
2024-02-28T09:09:11.525Z,102046.47
2024-02-28T09:11:38.210Z,102043.91
2024-02-28T09:14:04.854Z,102050.13
2024-02-28T09:16:33.025Z,102049.94
2024-02-28T09:18:59.763Z,102048.94
2024-02-28T09:21:26.539Z,102056.22
2024-02-28T09:23:53.235Z,102057.66
2024-02-28T09:26:19.944Z,102052.50
2024-02-28T09:28:46.598Z,102053.78
2024-02-28T09:31:13.283Z,102050.88
2024-02-28T09:33:41.413Z,102037.78
2024-02-28T09:36:08.373Z,102040.63
2024-02-28T09:38:35.037Z,102033.97
2024-02-28T09:41:01.918Z,102036.84
2024-02-28T09:43:30.642Z,102029.44
2024-02-28T09:46:00.332Z,102031.22
2024-02-28T09:48:28.545Z,102032.78
2024-02-28T09:50:57.386Z,102025.72
2024-02-28T09:53:24.033Z,102015.94
2024-02-28T09:55:51.381Z,102024.84
2024-02-28T09:58:19.005Z,102024.50
2024-02-28T10:00:47.427Z,102021.75
2024-02-28T10:03:14.996Z,102037.22
2024-02-28T10:05:41.663Z,102037.03
2024-02-28T10:08:09.725Z,102031.44
2024-02-28T10:10:37.815Z,102029.78
2024-02-28T10:13:04.975Z,102037.31
2024-02-28T10:15:32.074Z,102036.84
2024-02-28T10:17:58.780Z,102028.94
2024-02-28T10:20:25.465Z,102033.69
2024-02-28T10:22:53.860Z,102035.59
2024-02-28T10:25:22.442Z,102029.28
2024-02-28T10:27:49.133Z,102028.66
2024-02-28T10:30:15.959Z,102040.59
2024-02-28T10:32:49.718Z,102042.84
2024-02-28T10:35:18.371Z,102046.91
2024-02-28T10:37:45.929Z,102050.94
2024-02-28T10:40:14.396Z,102049.97
2024-02-28T10:42:43.438Z,102057.94
2024-02-28T10:45:19.307Z,102056.81
2024-02-28T10:47:52.497Z,102063.19
2024-02-28T10:50:19.372Z,102057.72
2024-02-28T10:52:46.060Z,102058.09
2024-02-28T10:55:12.743Z,102048.78
2024-02-28T10:57:40.351Z,102045.84
2024-02-28T11:00:10.730Z,102052.22
2024-02-28T11:02:37.689Z,102049.09
2024-02-28T11:05:05.195Z,102049.44
2024-02-28T11:07:32.086Z,102046.50
2024-02-28T11:09:58.952Z,102052.03
2024-02-28T11:12:26.733Z,102055.78
2024-02-28T11:14:58.361Z,102055.00
2024-02-28T11:17:29.951Z,102049.38
2024-02-28T11:19:56.796Z,102046.41
2024-02-28T11:22:23.838Z,102041.94
2024-02-28T11:24:54.530Z,102029.50
2024-02-28T11:27:21.714Z,102022.78
2024-02-28T11:29:48.405Z,102033.13
2024-02-28T11:32:15.119Z,102005.13
2024-02-28T11:34:43.396Z,102017.38
2024-02-28T11:37:10.427Z,102018.63
2024-02-28T11:39:37.141Z,102032.06
2024-02-28T11:42:11.594Z,102017.88
2024-02-28T11:44:38.297Z,102016.63
2024-02-28T11:47:05.158Z,102006.91
2024-02-28T11:49:34.073Z,102011.28
2024-02-28T11:52:02.344Z,102006.59
2024-02-28T11:54:29.113Z,102005.00
2024-02-28T11:56:58.905Z,102000.31
2024-02-28T11:59:26.945Z,101998.09
2024-02-28T12:01:53.837Z,102005.84
2024-02-28T12:04:20.591Z,102005.25
2024-02-28T12:06:47.641Z,101999.47
2024-02-28T12:09:21.412Z,102005.22
2024-02-28T12:11:54.411Z,101990.97
2024-02-28T12:14:21.092Z,101987.56
2024-02-28T12:16:49.755Z,101993.28
2024-02-28T12:19:16.680Z,101981.22
2024-02-28T12:21:43.520Z,101978.88
2024-02-28T12:24:11.455Z,101968.00
2024-02-28T12:26:40.198Z,101977.63
2024-02-28T12:29:07.119Z,101961.38
2024-02-28T12:31:34.103Z,101969.03
2024-02-28T12:34:00.859Z,101956.78
2024-02-28T12:36:28.020Z,101958.72
2024-02-28T12:38:55.269Z,101970.94
2024-02-28T12:41:22.091Z,101963.72
2024-02-28T12:43:50.218Z,101962.00
2024-02-28T12:46:17.183Z,101963.75
2024-02-28T12:48:44.127Z,101969.75
2024-02-28T12:51:14.743Z,101972.81
2024-02-28T12:53:41.819Z,101972.91
2024-02-28T12:56:08.510Z,101968.22
2024-02-28T12:58:35.157Z,101956.94
2024-02-28T13:01:03.507Z,101958.03
2024-02-28T13:03:30.546Z,101948.84
2024-02-28T13:05:57.257Z,101952.81
2024-02-28T13:08:23.965Z,101959.53
2024-02-28T13:10:50.633Z,101947.34
2024-02-28T13:13:17.342Z,101936.06
2024-02-28T13:15:44.236Z,101941.66
2024-02-28T13:18:12.565Z,101937.34
2024-02-28T13:20:39.309Z,101944.16
2024-02-28T13:23:06.010Z,101943.75
2024-02-28T13:25:32.836Z,101931.91
2024-02-28T13:27:59.547Z,101932.84
2024-02-28T13:30:26.278Z,101935.50
2024-02-28T13:32:53.291Z,101936.63
2024-02-28T13:35:21.408Z,101938.41
2024-02-28T13:37:48.092Z,101938.34
2024-02-28T13:40:15.056Z,101937.53
2024-02-28T13:42:42.118Z,101939.56
2024-02-28T13:45:09.549Z,101938.94
2024-02-28T13:47:36.368Z,101936.66
2024-02-28T13:50:03.700Z,101935.09
2024-02-28T13:52:31.750Z,101920.69
2024-02-28T13:54:58.826Z,101928.00
2024-02-28T13:57:25.873Z,101926.00
2024-02-28T13:59:52.609Z,101923.78
2024-02-28T14:02:19.461Z,101929.88
2024-02-28T14:04:46.196Z,101917.78
2024-02-28T14:07:13.020Z,101926.97
2024-02-28T14:09:42.671Z,101931.81
2024-02-28T14:12:09.693Z,101920.03
2024-02-28T14:14:36.415Z,101925.38
2024-02-28T14:17:03.117Z,101925.16
2024-02-28T14:19:29.756Z,101924.41
2024-02-28T14:21:56.466Z,101918.00
2024-02-28T14:24:23.278Z,101918.03
2024-02-28T14:26:51.570Z,101912.94
2024-02-28T14:29:18.461Z,101915.31
2024-02-28T14:31:45.194Z,101919.56
2024-02-28T14:34:11.953Z,101912.81
2024-02-28T14:36:38.662Z,101910.91
2024-02-28T14:39:05.673Z,101911.91
2024-02-28T14:41:32.327Z,101902.22
2024-02-28T14:44:00.385Z,101908.03
2024-02-28T14:46:27.071Z,101903.06
2024-02-28T14:48:53.823Z,101909.78
2024-02-28T14:51:20.794Z,101905.94
2024-02-28T14:53:47.989Z,101905.72
2024-02-28T14:56:15.215Z,101898.94
2024-02-28T14:58:41.989Z,101898.84
2024-02-28T15:01:10.148Z,101902.66
2024-02-28T15:03:41.141Z,101904.22
2024-02-28T15:06:08.491Z,101897.34
2024-02-28T15:08:35.281Z,101897.38
2024-02-28T15:11:02.001Z,101892.22
2024-02-28T15:13:28.762Z,101896.72
2024-02-28T15:15:55.468Z,101884.28
2024-02-28T15:18:23.942Z,101889.91
2024-02-28T15:20:50.954Z,101889.16
2024-02-28T15:23:17.654Z,101891.22
2024-02-28T15:25:44.338Z,101886.69
2024-02-28T15:28:11.121Z,101892.50
2024-02-28T15:30:37.863Z,101886.63
2024-02-28T15:33:05.375Z,101892.28
2024-02-28T15:35:33.586Z,101890.84
2024-02-28T15:38:00.350Z,101898.53
2024-02-28T15:40:27.050Z,101891.81
2024-02-28T15:42:54.356Z,101892.38
2024-02-28T15:45:21.336Z,101888.22
2024-02-28T15:47:48.863Z,101888.88
2024-02-28T15:50:16.374Z,101887.03
2024-02-28T15:52:44.718Z,101880.09
2024-02-28T15:55:11.920Z,101884.66
2024-02-28T15:57:38.790Z,101886.94
2024-02-28T16:00:06.948Z,101886.78
2024-02-28T16:02:38.693Z,101885.94
2024-02-28T16:05:05.900Z,101890.63
2024-02-28T16:07:32.619Z,101886.00
2024-02-28T16:10:01.075Z,101883.88
2024-02-28T16:12:28.156Z,101894.03
2024-02-28T16:14:54.922Z,101886.53
2024-02-28T16:17:21.580Z,101891.44
2024-02-28T16:19:48.269Z,101881.06
2024-02-28T16:22:15.077Z,101880.72
2024-02-28T16:24:42.088Z,101867.69
2024-02-28T16:27:10.459Z,101874.69
2024-02-28T16:29:37.488Z,101866.75
2024-02-28T16:32:04.665Z,101852.78
2024-02-28T16:34:31.353Z,101859.66
2024-02-28T16:36:58.052Z,101854.38
2024-02-28T16:39:24.827Z,101854.00
2024-02-28T16:41:51.539Z,101860.75
2024-02-28T16:44:21.023Z,101847.09
2024-02-28T16:46:47.962Z,101853.66
2024-02-28T16:49:14.917Z,101847.56
2024-02-28T16:51:43.129Z,101848.41
2024-02-28T16:54:10.444Z,101858.69
2024-02-28T16:56:37.135Z,101848.59
2024-02-28T16:59:03.935Z,101850.06
2024-02-28T17:01:32.074Z,101849.72
2024-02-28T17:03:58.855Z,101846.88
2024-02-28T17:06:25.780Z,101835.00
2024-02-28T17:08:52.486Z,101841.31
2024-02-28T17:11:19.456Z,101839.41
2024-02-28T17:13:46.152Z,101834.81
2024-02-28T17:16:12.910Z,101842.78
2024-02-28T17:18:41.009Z,101837.63
2024-02-28T17:21:07.842Z,101838.09
2024-02-28T17:23:34.522Z,101833.47
2024-02-28T17:26:01.186Z,101833.09
2024-02-28T17:28:28.207Z,101839.06
2024-02-28T17:30:55.052Z,101837.88
2024-02-28T17:33:21.945Z,101834.34
2024-02-28T17:35:50.074Z,101834.09
2024-02-28T17:38:16.742Z,101840.28
2024-02-28T17:40:43.429Z,101828.78
2024-02-28T17:43:10.187Z,101834.22
2024-02-28T17:45:37.086Z,101832.28
2024-02-28T17:48:04.438Z,101826.09
2024-02-28T17:50:31.132Z,101822.00
2024-02-28T17:52:59.219Z,101821.97
2024-02-28T17:55:26.115Z,101817.34
2024-02-28T17:57:52.909Z,101807.66
2024-02-28T18:00:20.116Z,101811.53
2024-02-28T18:02:46.821Z,101797.69
2024-02-28T18:05:13.718Z,101804.84
2024-02-28T18:07:40.708Z,101812.84
2024-02-28T18:10:10.883Z,101825.56
2024-02-28T18:12:37.804Z,101832.22
2024-02-28T18:15:05.533Z,101841.00
2024-02-28T18:17:33.320Z,101830.75
2024-02-28T18:20:02.131Z,101822.69
2024-02-28T18:22:30.207Z,101821.16
2024-02-28T18:24:56.903Z,101814.75
2024-02-28T18:27:24.956Z,101814.91
2024-02-28T18:29:51.864Z,101806.91
2024-02-28T18:32:18.780Z,101806.28
2024-02-28T18:34:45.530Z,101809.56
2024-02-28T18:37:12.382Z,101817.94
2024-02-28T18:39:39.158Z,101815.28
2024-02-28T18:42:06.538Z,101798.75
2024-02-28T18:44:38.398Z,101804.97
2024-02-28T18:47:06.205Z,101802.00
2024-02-28T18:49:33.134Z,101808.34
2024-02-28T18:51:59.879Z,101811.31
2024-02-28T18:54:26.632Z,101809.69
2024-02-28T18:56:53.421Z,101807.50
2024-02-28T18:59:20.164Z,101808.41
2024-02-28T19:01:48.383Z,101801.69
2024-02-28T19:04:15.204Z,101796.38
2024-02-28T19:06:44.161Z,101800.56
2024-02-28T19:09:10.909Z,101797.25
2024-02-28T19:11:37.621Z,101791.28
2024-02-28T19:14:04.593Z,101792.06
2024-02-28T19:16:31.300Z,101790.25
2024-02-28T19:18:59.636Z,101790.72
2024-02-28T19:21:26.476Z,101790.41
2024-02-28T19:23:53.220Z,101797.19
2024-02-28T19:26:19.971Z,101791.53
2024-02-28T19:28:46.763Z,101777.66
2024-02-28T19:31:14.446Z,101774.75
2024-02-28T19:33:41.281Z,101773.38
2024-02-28T19:36:09.974Z,101775.75
2024-02-28T19:38:36.691Z,101781.44
2024-02-28T19:41:03.552Z,101781.03
2024-02-28T19:43:30.368Z,101789.59
2024-02-28T19:45:57.226Z,101794.50
2024-02-28T19:48:23.914Z,101789.59
2024-02-28T19:50:52.533Z,101784.69
2024-02-28T19:53:22.044Z,101787.28
2024-02-28T19:55:48.957Z,101784.47
2024-02-28T19:58:15.706Z,101782.56
2024-02-28T20:00:42.562Z,101768.78
2024-02-28T20:03:09.751Z,101763.38
2024-02-28T20:05:36.585Z,101752.16
2024-02-28T20:08:03.535Z,101750.75
2024-02-28T20:10:34.193Z,101757.81
2024-02-28T20:13:02.989Z,101749.75
2024-02-28T20:15:29.807Z,101746.81
2024-02-28T20:17:56.660Z,101757.47
2024-02-28T20:20:23.612Z,101755.06
2024-02-28T20:22:50.777Z,101750.41
2024-02-28T20:25:17.549Z,101754.53
2024-02-28T20:27:45.728Z,101750.69
2024-02-28T20:30:12.919Z,101757.03
2024-02-28T20:32:39.855Z,101738.34
2024-02-28T20:35:07.671Z,101723.31
2024-02-28T20:37:34.611Z,101727.22
2024-02-28T20:40:01.603Z,101726.63
2024-02-28T20:42:28.490Z,101733.69
2024-02-28T20:44:56.572Z,101729.34
2024-02-28T20:47:23.246Z,101722.34
2024-02-28T20:49:49.898Z,101716.94
2024-02-28T20:52:16.643Z,101722.09
2024-02-28T20:54:45.197Z,101711.88
2024-02-28T20:57:16.550Z,101711.09
2024-02-28T20:59:44.108Z,101707.25
2024-02-28T21:02:12.734Z,101710.16
2024-02-28T21:04:39.732Z,101701.81
2024-02-28T21:07:06.666Z,101703.09
2024-02-28T21:09:33.700Z,101694.47
2024-02-28T21:12:04.291Z,101701.84
2024-02-28T21:14:31.025Z,101698.84
2024-02-28T21:16:58.867Z,101691.81
2024-02-28T21:19:27.303Z,101684.09
2024-02-28T21:21:54.305Z,101682.75
2024-02-28T21:24:21.093Z,101687.88
2024-02-28T21:26:47.779Z,101675.25
2024-02-28T21:29:14.704Z,101681.25
2024-02-28T21:31:41.482Z,101679.19
2024-02-28T21:34:08.293Z,101671.66
2024-02-28T21:36:36.430Z,101672.34
2024-02-28T21:39:03.364Z,101674.56
2024-02-28T21:41:30.207Z,101670.91
2024-02-28T21:43:56.932Z,101663.13
2024-02-28T21:46:23.643Z,101658.28
2024-02-28T21:48:56.495Z,101652.91
2024-02-28T21:51:29.294Z,101655.19
2024-02-28T21:53:57.526Z,101654.03
2024-02-28T21:56:24.210Z,101644.34
2024-02-28T21:58:50.876Z,101641.03
2024-02-28T22:01:17.996Z,101640.31
2024-02-28T22:03:44.774Z,101632.22
2024-02-28T22:06:11.472Z,101630.53
2024-02-28T22:08:38.231Z,101637.16
2024-02-28T22:11:09.551Z,101629.19
2024-02-28T22:13:36.538Z,101629.22
2024-02-28T22:16:03.630Z,101622.91
2024-02-28T22:18:30.524Z,101624.03
2024-02-28T22:20:57.631Z,101620.13
2024-02-28T22:23:24.523Z,101619.28
2024-02-28T22:25:51.232Z,101622.91
2024-02-28T22:28:19.398Z,101614.56
2024-02-28T22:30:46.463Z,101615.78
2024-02-28T22:33:13.543Z,101605.59
2024-02-28T22:35:40.410Z,101604.72
2024-02-28T22:38:07.228Z,101601.28
2024-02-28T22:40:33.947Z,101595.94
2024-02-28T22:43:00.714Z,101599.44
2024-02-28T22:45:28.922Z,101593.53
2024-02-28T22:47:55.682Z,101590.47
2024-02-28T22:50:22.397Z,101592.41
2024-02-28T22:52:49.316Z,101584.06
2024-02-28T22:55:20.795Z,101585.03
2024-02-28T22:57:48.241Z,101586.28
2024-02-28T23:00:16.363Z,101580.81
2024-02-28T23:02:44.644Z,101573.44
2024-02-28T23:05:11.330Z,101578.72
2024-02-28T23:07:38.013Z,101568.69
2024-02-28T23:10:05.548Z,101560.38
2024-02-28T23:12:32.278Z,101550.44
2024-02-28T23:14:59.003Z,101545.81
2024-02-28T23:17:25.791Z,101547.53
2024-02-28T23:19:56.231Z,101557.69
2024-02-28T23:22:23.017Z,101549.03
2024-02-28T23:24:49.701Z,101544.53
2024-02-28T23:27:16.496Z,101543.66
2024-02-28T23:29:43.257Z,101538.78
2024-02-28T23:32:09.939Z,101539.03
2024-02-28T23:34:36.635Z,101536.97
2024-02-28T23:37:04.861Z,101536.63
2024-02-28T23:39:31.581Z,101532.03
2024-02-28T23:41:58.288Z,101535.88
2024-02-28T23:44:25.590Z,101530.59
2024-02-28T23:46:52.240Z,101516.53
2024-02-28T23:49:18.956Z,101510.50
2024-02-28T23:51:45.698Z,101513.59
2024-02-28T23:54:13.759Z,101505.78
2024-02-28T23:56:40.508Z,101504.31
2024-02-28T23:59:07.266Z,101503.22
